PWSweather.com
Personal Weather Stations
Station Observations
KMIEASTT1
Tawas Bay, East Tawas, MI 48730

Tawas BayEast Tawas, MI 48730

Lat: 44.28, Lon: -83.48

Elevation: 600

Station Type: Davis VantagePro

http://www.tawasbayweather.com

High Low Average
Temperature 46.5°F8.1°C 28.3°F-2.1°C 34.8°F1.6°C
Dew Point 31.3°F-0.4°C 25.5°F-3.6°C 28.0°F-2.2°C
Winds 14.0 mph 22.5 kmh 2.0 mph 3.2 kmh 9.0 mph WSW14.5 kmh WSW
Wind Gusts 19.0 mph30.6 kmh 3.0 mph4.8 kmh 12.0 mph19.3 kmh
Humidity 92% 49% 78%
Pressure 30.14 in1020.7 mb 29.97 in1014.9 mb -
Precipitation 0.00 in0.0 mm - -
Hour Temp Dew Point Humidity Winds Wind Gusts Pressure Precip Precip Rate Daily Precip Total
12:01 AM 30.0°F-1.1°C 26.3°F-3.2°C 86% 5.0 mph WSW8.0 kmh WSW 11.0 mph17.7 kmh 30.14 in1020.7 mb 0.00 in0.0 mm 0.00 in/hr0.0 mm/hr 0.00 in0.0 mm
12:17 AM 29.3°F-1.5°C 25.9°F-3.4°C 87% 6.0 mph WSW9.7 kmh WSW 9.0 mph14.5 kmh 30.14 in1020.7 mb 0.00 in0.0 mm 0.00 in/hr0.0 mm/hr 0.00 in0.0 mm
12:31 AM 29.2°F-1.6°C 26.1°F-3.3°C 88% 7.0 mph WSW11.3 kmh WSW 10.0 mph16.1 kmh 30.14 in1020.7 mb 0.00 in0.0 mm 0.00 in/hr0.0 mm/hr 0.00 in0.0 mm
12:46 AM 28.8°F-1.8°C 25.7°F-3.5°C 88% 6.0 mph WSW9.7 kmh WSW 8.0 mph12.9 kmh 30.14 in1020.7 mb 0.00 in0.0 mm 0.00 in/hr0.0 mm/hr 0.00 in0.0 mm
01:02 AM 28.7°F-1.8°C 25.6°F-3.6°C 88% 6.0 mph WSW9.7 kmh WSW 8.0 mph12.9 kmh 30.13 in1020.3 mb 0.00 in0.0 mm 0.00 in/hr0.0 mm/hr 0.00 in0.0 mm
01:15 AM 28.6°F-1.9°C 25.5°F-3.6°C 88% 7.0 mph SW11.3 kmh SW 9.0 mph14.5 kmh 30.12 in1020.0 mb 0.00 in0.0 mm 0.00 in/hr0.0 mm/hr 0.00 in0.0 mm
01:31 AM 28.6°F-1.9°C 25.8°F-3.4°C 89% 5.0 mph SW8.0 kmh SW 10.0 mph16.1 kmh 30.12 in1020.0 mb 0.00 in0.0 mm 0.00 in/hr0.0 mm/hr 0.00 in0.0 mm
01:45 AM 28.6°F-1.9°C 25.8°F-3.4°C 89% 8.0 mph SW12.9 kmh SW 11.0 mph17.7 kmh 30.11 in1019.6 mb 0.00 in0.0 mm 0.00 in/hr0.0 mm/hr 0.00 in0.0 mm
02:02 AM 28.6°F-1.9°C 25.8°F-3.4°C 89% 9.0 mph WSW14.5 kmh WSW 11.0 mph17.7 kmh 30.11 in1019.6 mb 0.00 in0.0 mm 0.00 in/hr0.0 mm/hr 0.00 in0.0 mm
02:15 AM 28.7°F-1.8°C 25.9°F-3.4°C 89% 9.0 mph WSW14.5 kmh WSW 11.0 mph17.7 kmh 30.11 in1019.6 mb 0.00 in0.0 mm 0.00 in/hr0.0 mm/hr 0.00 in0.0 mm
02:31 AM 28.8°F-1.8°C 26.0°F-3.3°C 89% 9.0 mph SW14.5 kmh SW 10.0 mph16.1 kmh 30.11 in1019.6 mb 0.00 in0.0 mm 0.00 in/hr0.0 mm/hr 0.00 in0.0 mm
02:46 AM 28.8°F-1.8°C 26.2°F-3.2°C 90% 9.0 mph SW14.5 kmh SW 12.0 mph19.3 kmh 30.11 in1019.6 mb 0.00 in0.0 mm 0.00 in/hr0.0 mm/hr 0.00 in0.0 mm
03:02 AM 28.7°F-1.8°C 26.1°F-3.3°C 90% 9.0 mph WSW14.5 kmh WSW 12.0 mph19.3 kmh 30.10 in1019.3 mb 0.00 in0.0 mm 0.00 in/hr0.0 mm/hr 0.00 in0.0 mm
03:15 AM 28.5°F-1.9°C 26.0°F-3.3°C 90% 8.0 mph WSW12.9 kmh WSW 10.0 mph16.1 kmh 30.10 in1019.3 mb 0.00 in0.0 mm 0.00 in/hr0.0 mm/hr 0.00 in0.0 mm
03:31 AM 28.5°F-1.9°C 26.0°F-3.3°C 90% 8.0 mph SW12.9 kmh SW 12.0 mph19.3 kmh 30.09 in1019.0 mb 0.00 in0.0 mm 0.00 in/hr0.0 mm/hr 0.00 in0.0 mm
03:46 AM 28.6°F-1.9°C 26.3°F-3.2°C 91% 8.0 mph WSW12.9 kmh WSW 13.0 mph20.9 kmh 30.09 in1019.0 mb 0.00 in0.0 mm 0.00 in/hr0.0 mm/hr 0.00 in0.0 mm
04:01 AM 28.3°F-2.1°C 26.0°F-3.3°C 91% 10.0 mph WSW16.1 kmh WSW 11.0 mph17.7 kmh 30.08 in1018.6 mb 0.00 in0.0 mm 0.00 in/hr0.0 mm/hr 0.00 in0.0 mm
04:16 AM 28.5°F-1.9°C 26.5°F-3.1°C 92% 10.0 mph WSW16.1 kmh WSW 13.0 mph20.9 kmh 30.07 in1018.3 mb 0.00 in0.0 mm 0.00 in/hr0.0 mm/hr 0.00 in0.0 mm
04:31 AM 28.7°F-1.8°C 26.7°F-2.9°C 92% 8.0 mph WSW12.9 kmh WSW 11.0 mph17.7 kmh 30.07 in1018.3 mb 0.00 in0.0 mm 0.00 in/hr0.0 mm/hr 0.00 in0.0 mm
04:45 AM 28.7°F-1.8°C 26.7°F-2.9°C 92% 10.0 mph SW16.1 kmh SW 12.0 mph19.3 kmh 30.07 in1018.3 mb 0.00 in0.0 mm 0.00 in/hr0.0 mm/hr 0.00 in0.0 mm
05:01 AM 28.8°F-1.8°C 26.8°F-2.9°C 92% 10.0 mph WSW16.1 kmh WSW 11.0 mph17.7 kmh 30.07 in1018.3 mb 0.00 in0.0 mm 0.00 in/hr0.0 mm/hr 0.00 in0.0 mm
05:16 AM 28.9°F-1.7°C 26.9°F-2.8°C 92% 10.0 mph SW16.1 kmh SW 11.0 mph17.7 kmh 30.07 in1018.3 mb 0.00 in0.0 mm 0.00 in/hr0.0 mm/hr 0.00 in0.0 mm
05:31 AM 28.8°F-1.8°C 26.8°F-2.9°C 92% 8.0 mph WSW12.9 kmh WSW 11.0 mph17.7 kmh 30.06 in1017.9 mb 0.00 in0.0 mm 0.00 in/hr0.0 mm/hr 0.00 in0.0 mm
05:45 AM 29.2°F-1.6°C 27.2°F-2.7°C 92% 7.0 mph SW11.3 kmh SW 12.0 mph19.3 kmh 30.06 in1017.9 mb 0.00 in0.0 mm 0.00 in/hr0.0 mm/hr 0.00 in0.0 mm
06:01 AM 29.0°F-1.7°C 27.0°F-2.8°C 92% 9.0 mph WSW14.5 kmh WSW 14.0 mph22.5 kmh 30.06 in1017.9 mb 0.00 in0.0 mm 0.00 in/hr0.0 mm/hr 0.00 in0.0 mm
06:16 AM 29.4°F-1.4°C 27.4°F-2.6°C 92% 12.0 mph SW19.3 kmh SW 13.0 mph20.9 kmh 30.06 in1017.9 mb 0.00 in0.0 mm 0.00 in/hr0.0 mm/hr 0.00 in0.0 mm
06:31 AM 29.3°F-1.5°C 27.3°F-2.6°C 92% 11.0 mph SW17.7 kmh SW 13.0 mph20.9 kmh 30.06 in1017.9 mb 0.00 in0.0 mm 0.00 in/hr0.0 mm/hr 0.00 in0.0 mm
06:46 AM 29.2°F-1.6°C 26.9°F-2.8°C 91% 9.0 mph WSW14.5 kmh WSW 11.0 mph17.7 kmh 30.05 in1017.6 mb 0.00 in0.0 mm 0.00 in/hr0.0 mm/hr 0.00 in0.0 mm
07:01 AM 29.2°F-1.6°C 26.9°F-2.8°C 91% 8.0 mph WSW12.9 kmh WSW 13.0 mph20.9 kmh 30.04 in1017.3 mb 0.00 in0.0 mm 0.00 in/hr0.0 mm/hr 0.00 in0.0 mm
07:15 AM 29.0°F-1.7°C 26.7°F-2.9°C 91% 9.0 mph WSW14.5 kmh WSW 12.0 mph19.3 kmh 30.04 in1017.3 mb 0.00 in0.0 mm 0.00 in/hr0.0 mm/hr 0.00 in0.0 mm
07:31 AM 28.9°F-1.7°C 26.6°F-3.0°C 91% 9.0 mph WSW14.5 kmh WSW 13.0 mph20.9 kmh 30.04 in1017.3 mb 0.00 in0.0 mm 0.00 in/hr0.0 mm/hr 0.00 in0.0 mm
07:45 AM 28.9°F-1.7°C 26.6°F-3.0°C 91% 9.0 mph WSW14.5 kmh WSW 13.0 mph20.9 kmh 30.04 in1017.3 mb 0.00 in0.0 mm 0.00 in/hr0.0 mm/hr 0.00 in0.0 mm
08:02 AM 29.1°F-1.6°C 26.5°F-3.1°C 90% 8.0 mph WSW12.9 kmh WSW 11.0 mph17.7 kmh 30.04 in1017.3 mb 0.00 in0.0 mm 0.00 in/hr0.0 mm/hr 0.00 in0.0 mm
08:16 AM 29.3°F-1.5°C 26.7°F-2.9°C 90% 7.0 mph WSW11.3 kmh WSW 11.0 mph17.7 kmh 30.04 in1017.3 mb 0.00 in0.0 mm 0.00 in/hr0.0 mm/hr 0.00 in0.0 mm
08:31 AM 29.9°F-1.2°C 27.3°F-2.6°C 90% 9.0 mph WSW14.5 kmh WSW 14.0 mph22.5 kmh 30.04 in1017.3 mb 0.00 in0.0 mm 0.00 in/hr0.0 mm/hr 0.00 in0.0 mm
08:45 AM 30.3°F-0.9°C 27.7°F-2.4°C 90% 9.0 mph WSW14.5 kmh WSW 14.0 mph22.5 kmh 30.04 in1017.3 mb 0.00 in0.0 mm 0.00 in/hr0.0 mm/hr 0.00 in0.0 mm
09:00 AM 31.6°F-0.2°C 28.5°F-1.9°C 88% 10.0 mph W16.1 kmh W 13.0 mph20.9 kmh 30.05 in1017.6 mb 0.00 in0.0 mm 0.00 in/hr0.0 mm/hr 0.00 in0.0 mm
09:16 AM 32.1°F0.1°C 28.7°F-1.8°C 87% 10.0 mph WSW16.1 kmh WSW 15.0 mph24.1 kmh 30.05 in1017.6 mb 0.00 in0.0 mm 0.00 in/hr0.0 mm/hr 0.00 in0.0 mm
09:30 AM 32.4°F0.2°C 29.0°F-1.7°C 87% 12.0 mph WSW19.3 kmh WSW 15.0 mph24.1 kmh 30.04 in1017.3 mb 0.00 in0.0 mm 0.00 in/hr0.0 mm/hr 0.00 in0.0 mm
09:45 AM 32.9°F0.5°C 29.2°F-1.6°C 86% 11.0 mph SW17.7 kmh SW 15.0 mph24.1 kmh 30.04 in1017.3 mb 0.00 in0.0 mm 0.00 in/hr0.0 mm/hr 0.00 in0.0 mm
10:02 AM 33.4°F0.8°C 29.4°F-1.4°C 85% 11.0 mph WSW17.7 kmh WSW 15.0 mph24.1 kmh 30.03 in1016.9 mb 0.00 in0.0 mm 0.00 in/hr0.0 mm/hr 0.00 in0.0 mm
10:16 AM 33.9°F1.1°C 29.6°F-1.3°C 84% 13.0 mph WSW20.9 kmh WSW 16.0 mph25.7 kmh 30.03 in1016.9 mb 0.00 in0.0 mm 0.00 in/hr0.0 mm/hr 0.00 in0.0 mm
10:31 AM 34.7°F1.5°C 29.8°F-1.2°C 82% 12.0 mph WSW19.3 kmh WSW 18.0 mph29.0 kmh 30.03 in1016.9 mb 0.00 in0.0 mm 0.00 in/hr0.0 mm/hr 0.00 in0.0 mm
10:47 AM 35.5°F1.9°C 30.3°F-0.9°C 81% 13.0 mph WSW20.9 kmh WSW 17.0 mph27.4 kmh 30.02 in1016.6 mb 0.00 in0.0 mm 0.00 in/hr0.0 mm/hr 0.00 in0.0 mm
11:00 AM 35.0°F1.7°C 30.1°F-1.1°C 82% 14.0 mph WSW22.5 kmh WSW 18.0 mph29.0 kmh 30.01 in1016.3 mb 0.00 in0.0 mm 0.00 in/hr0.0 mm/hr 0.00 in0.0 mm
11:16 AM 35.7°F2.1°C 30.5°F-0.8°C 81% 13.0 mph WSW20.9 kmh WSW 17.0 mph27.4 kmh 30.01 in1016.3 mb 0.00 in0.0 mm 0.00 in/hr0.0 mm/hr 0.00 in0.0 mm
11:31 AM 36.0°F2.2°C 30.4°F-0.9°C 80% 13.0 mph WSW20.9 kmh WSW 18.0 mph29.0 kmh 30.01 in1016.3 mb 0.00 in0.0 mm 0.00 in/hr0.0 mm/hr 0.00 in0.0 mm
11:46 AM 38.3°F3.5°C 30.8°F-0.7°C 74% 12.0 mph WSW19.3 kmh WSW 18.0 mph29.0 kmh 30.01 in1016.3 mb 0.00 in0.0 mm 0.00 in/hr0.0 mm/hr 0.00 in0.0 mm
12:00 PM 39.2°F4.0°C 31.3°F-0.4°C 73% 8.0 mph WNW12.9 kmh WNW 12.0 mph19.3 kmh 30.00 in1015.9 mb 0.00 in0.0 mm 0.00 in/hr0.0 mm/hr 0.00 in0.0 mm
12:16 PM 38.5°F3.6°C 31.0°F-0.6°C 74% 12.0 mph WSW19.3 kmh WSW 16.0 mph25.7 kmh 30.00 in1015.9 mb 0.00 in0.0 mm 0.00 in/hr0.0 mm/hr 0.00 in0.0 mm
12:31 PM 38.3°F3.5°C 31.1°F-0.5°C 75% 12.0 mph WSW19.3 kmh WSW 19.0 mph30.6 kmh 30.00 in1015.9 mb 0.00 in0.0 mm 0.00 in/hr0.0 mm/hr 0.00 in0.0 mm
12:46 PM 39.7°F4.3°C 31.1°F-0.5°C 71% 8.0 mph WSW12.9 kmh WSW 17.0 mph27.4 kmh 30.00 in1015.9 mb 0.00 in0.0 mm 0.00 in/hr0.0 mm/hr 0.00 in0.0 mm
01:00 PM 40.6°F4.8°C 31.2°F-0.4°C 69% 11.0 mph W17.7 kmh W 12.0 mph19.3 kmh 29.99 in1015.6 mb 0.00 in0.0 mm 0.00 in/hr0.0 mm/hr 0.00 in0.0 mm
01:16 PM 42.0°F5.6°C 31.1°F-0.5°C 65% 12.0 mph NW19.3 kmh NW 12.0 mph19.3 kmh 29.99 in1015.6 mb 0.00 in0.0 mm 0.00 in/hr0.0 mm/hr 0.00 in0.0 mm
01:31 PM 43.0°F6.1°C 30.5°F-0.8°C 61% 7.0 mph WNW11.3 kmh WNW 13.0 mph20.9 kmh 29.98 in1015.2 mb 0.00 in0.0 mm 0.00 in/hr0.0 mm/hr 0.00 in0.0 mm
01:45 PM 41.2°F5.1°C 30.3°F-0.9°C 65% 10.0 mph WSW16.1 kmh WSW 13.0 mph20.9 kmh 29.98 in1015.2 mb 0.00 in0.0 mm 0.00 in/hr0.0 mm/hr 0.00 in0.0 mm
02:02 PM 40.4°F4.7°C 30.7°F-0.7°C 68% 10.0 mph WSW16.1 kmh WSW 11.0 mph17.7 kmh 29.97 in1014.9 mb 0.00 in0.0 mm 0.00 in/hr0.0 mm/hr 0.00 in0.0 mm
02:17 PM 44.6°F7.0°C 30.3°F-0.9°C 57% 6.0 mph WSW9.7 kmh WSW 12.0 mph19.3 kmh 29.97 in1014.9 mb 0.00 in0.0 mm 0.00 in/hr0.0 mm/hr 0.00 in0.0 mm
02:30 PM 45.0°F7.2°C 29.8°F-1.2°C 55% 9.0 mph WSW14.5 kmh WSW 13.0 mph20.9 kmh 29.97 in1014.9 mb 0.00 in0.0 mm 0.00 in/hr0.0 mm/hr 0.00 in0.0 mm
02:46 PM 43.9°F6.6°C 29.7°F-1.3°C 57% 9.0 mph WSW14.5 kmh WSW 16.0 mph25.7 kmh 29.97 in1014.9 mb 0.00 in0.0 mm 0.00 in/hr0.0 mm/hr 0.00 in0.0 mm
03:02 PM 45.3°F7.4°C 29.2°F-1.6°C 53% 10.0 mph WSW16.1 kmh WSW 12.0 mph19.3 kmh 29.98 in1015.2 mb 0.00 in0.0 mm 0.00 in/hr0.0 mm/hr 0.00 in0.0 mm
03:16 PM 45.4°F7.4°C 28.8°F-1.8°C 52% 8.0 mph WNW12.9 kmh WNW 13.0 mph20.9 kmh 29.97 in1014.9 mb 0.00 in0.0 mm 0.00 in/hr0.0 mm/hr 0.00 in0.0 mm
03:31 PM 46.5°F8.1°C 28.4°F-2.0°C 49% 7.0 mph WSW11.3 kmh WSW 12.0 mph19.3 kmh 29.98 in1015.2 mb 0.00 in0.0 mm 0.00 in/hr0.0 mm/hr 0.00 in0.0 mm
03:45 PM 46.4°F8.0°C 28.8°F-1.8°C 50% 11.0 mph WSW17.7 kmh WSW 14.0 mph22.5 kmh 29.98 in1015.2 mb 0.00 in0.0 mm 0.00 in/hr0.0 mm/hr 0.00 in0.0 mm
04:02 PM 45.8°F7.7°C 28.2°F-2.1°C 50% 7.0 mph W11.3 kmh W 12.0 mph19.3 kmh 29.98 in1015.2 mb 0.00 in0.0 mm 0.00 in/hr0.0 mm/hr 0.00 in0.0 mm
04:16 PM 46.2°F7.9°C 28.6°F-1.9°C 50% 5.0 mph NW8.0 kmh NW 9.0 mph14.5 kmh 29.99 in1015.6 mb 0.00 in0.0 mm 0.00 in/hr0.0 mm/hr 0.00 in0.0 mm
04:31 PM 46.4°F8.0°C 29.3°F-1.5°C 51% 4.0 mph N6.4 kmh N 9.0 mph14.5 kmh 30.00 in1015.9 mb 0.00 in0.0 mm 0.00 in/hr0.0 mm/hr 0.00 in0.0 mm
04:46 PM 45.6°F7.6°C 29.0°F-1.7°C 52% 3.0 mph NW4.8 kmh NW 9.0 mph14.5 kmh 30.00 in1015.9 mb 0.00 in0.0 mm 0.00 in/hr0.0 mm/hr 0.00 in0.0 mm
05:02 PM 44.5°F6.9°C 27.5°F-2.5°C 51% 6.0 mph WSW9.7 kmh WSW 14.0 mph22.5 kmh 30.00 in1015.9 mb 0.00 in0.0 mm 0.00 in/hr0.0 mm/hr 0.00 in0.0 mm
05:17 PM 43.4°F6.3°C 27.9°F-2.3°C 54% 4.0 mph W6.4 kmh W 8.0 mph12.9 kmh 30.01 in1016.3 mb 0.00 in0.0 mm 0.00 in/hr0.0 mm/hr 0.00 in0.0 mm
05:31 PM 42.3°F5.7°C 28.2°F-2.1°C 57% 6.0 mph W9.7 kmh W 8.0 mph12.9 kmh 30.01 in1016.3 mb 0.00 in0.0 mm 0.00 in/hr0.0 mm/hr 0.00 in0.0 mm
05:46 PM 41.4°F5.2°C 28.2°F-2.1°C 59% 3.0 mph WSW4.8 kmh WSW 10.0 mph16.1 kmh 30.02 in1016.6 mb 0.00 in0.0 mm 0.00 in/hr0.0 mm/hr 0.00 in0.0 mm
06:02 PM 40.5°F4.7°C 28.1°F-2.2°C 61% 4.0 mph WNW6.4 kmh WNW 6.0 mph9.7 kmh 30.02 in1016.6 mb 0.00 in0.0 mm 0.00 in/hr0.0 mm/hr 0.00 in0.0 mm
06:16 PM 39.8°F4.3°C 28.3°F-2.1°C 63% 3.0 mph WNW4.8 kmh WNW 5.0 mph8.0 kmh 30.03 in1016.9 mb 0.00 in0.0 mm 0.00 in/hr0.0 mm/hr 0.00 in0.0 mm
06:31 PM 39.3°F4.1°C 28.2°F-2.1°C 64% 2.0 mph WNW3.2 kmh WNW 3.0 mph4.8 kmh 30.04 in1017.3 mb 0.00 in0.0 mm 0.00 in/hr0.0 mm/hr 0.00 in0.0 mm
06:47 PM 38.8°F3.8°C 28.1°F-2.2°C 65% 4.0 mph NW6.4 kmh NW 4.0 mph6.4 kmh 30.04 in1017.3 mb 0.00 in0.0 mm 0.00 in/hr0.0 mm/hr 0.00 in0.0 mm
07:03 PM 37.8°F3.2°C 27.8°F-2.3°C 67% 2.0 mph NW3.2 kmh NW 3.0 mph4.8 kmh 30.05 in1017.6 mb 0.00 in0.0 mm 0.00 in/hr0.0 mm/hr 0.00 in0.0 mm
07:15 PM 37.0°F2.8°C 27.8°F-2.3°C 69% 4.0 mph WNW6.4 kmh WNW 5.0 mph8.0 kmh 30.06 in1017.9 mb 0.00 in0.0 mm 0.00 in/hr0.0 mm/hr 0.00 in0.0 mm
07:31 PM 36.7°F2.6°C 27.9°F-2.3°C 70% 4.0 mph NW6.4 kmh NW 4.0 mph6.4 kmh 30.07 in1018.3 mb 0.00 in0.0 mm 0.00 in/hr0.0 mm/hr 0.00 in0.0 mm
07:46 PM 35.9°F2.2°C 27.8°F-2.3°C 72% 2.0 mph WNW3.2 kmh WNW 5.0 mph8.0 kmh 30.08 in1018.6 mb 0.00 in0.0 mm 0.00 in/hr0.0 mm/hr 0.00 in0.0 mm
08:02 PM 35.2°F1.8°C 27.8°F-2.3°C 74% 3.0 mph NW4.8 kmh NW 4.0 mph6.4 kmh 30.08 in1018.6 mb 0.00 in0.0 mm 0.00 in/hr0.0 mm/hr 0.00 in0.0 mm
08:16 PM 35.0°F1.7°C 27.9°F-2.3°C 75% 3.0 mph NW4.8 kmh NW 4.0 mph6.4 kmh 30.08 in1018.6 mb 0.00 in0.0 mm 0.00 in/hr0.0 mm/hr 0.00 in0.0 mm
08:31 PM 35.1°F1.7°C 28.3°F-2.1°C 76% 3.0 mph NW4.8 kmh NW 6.0 mph9.7 kmh 30.08 in1018.6 mb 0.00 in0.0 mm 0.00 in/hr0.0 mm/hr 0.00 in0.0 mm
08:46 PM 35.5°F1.9°C 28.7°F-1.8°C 76% 2.0 mph NW3.2 kmh NW 7.0 mph11.3 kmh 30.08 in1018.6 mb 0.00 in0.0 mm 0.00 in/hr0.0 mm/hr 0.00 in0.0 mm
09:00 PM 35.7°F2.1°C 28.9°F-1.7°C 76% 2.0 mph NW3.2 kmh NW 7.0 mph11.3 kmh 30.09 in1019.0 mb 0.00 in0.0 mm 0.00 in/hr0.0 mm/hr 0.00 in0.0 mm
09:16 PM 35.7°F2.1°C 29.2°F-1.6°C 77% 4.0 mph W6.4 kmh W 7.0 mph11.3 kmh 30.09 in1019.0 mb 0.00 in0.0 mm 0.00 in/hr0.0 mm/hr 0.00 in0.0 mm
09:30 PM 35.7°F2.1°C 28.9°F-1.7°C 76% 2.0 mph NW3.2 kmh NW 5.0 mph8.0 kmh 30.09 in1019.0 mb 0.00 in0.0 mm 0.00 in/hr0.0 mm/hr 0.00 in0.0 mm
09:45 PM 35.6°F2.0°C 28.8°F-1.8°C 76% 4.0 mph WNW6.4 kmh WNW 4.0 mph6.4 kmh 30.09 in1019.0 mb 0.00 in0.0 mm 0.00 in/hr0.0 mm/hr 0.00 in0.0 mm
10:02 PM 35.5°F1.9°C 28.7°F-1.8°C 76% 2.0 mph NW3.2 kmh NW 3.0 mph4.8 kmh 30.10 in1019.3 mb 0.00 in0.0 mm 0.00 in/hr0.0 mm/hr 0.00 in0.0 mm
10:16 PM 35.5°F1.9°C 28.7°F-1.8°C 76% 2.0 mph NNE3.2 kmh NNE 5.0 mph8.0 kmh 30.10 in1019.3 mb 0.00 in0.0 mm 0.00 in/hr0.0 mm/hr 0.00 in0.0 mm
10:31 PM 35.6°F2.0°C 28.5°F-1.9°C 75% 1.0 mph W1.6 kmh W 5.0 mph8.0 kmh 30.11 in1019.6 mb 0.00 in0.0 mm 0.00 in/hr0.0 mm/hr 0.00 in0.0 mm
10:46 PM 35.5°F1.9°C 28.4°F-2.0°C 75% 3.0 mph WNW4.8 kmh WNW 5.0 mph8.0 kmh 30.11 in1019.6 mb 0.00 in0.0 mm 0.00 in/hr0.0 mm/hr 0.00 in0.0 mm
11:02 PM 35.5°F1.9°C 28.4°F-2.0°C 75% 2.0 mph NW3.2 kmh NW 6.0 mph9.7 kmh 30.11 in1019.6 mb 0.00 in0.0 mm 0.00 in/hr0.0 mm/hr 0.00 in0.0 mm
11:16 PM 35.5°F1.9°C 28.4°F-2.0°C 75% 3.0 mph WSW4.8 kmh WSW 6.0 mph9.7 kmh 30.11 in1019.6 mb 0.00 in0.0 mm 0.00 in/hr0.0 mm/hr 0.00 in0.0 mm
11:31 PM 35.3°F1.8°C 28.5°F-1.9°C 76% 4.0 mph WNW6.4 kmh WNW 5.0 mph8.0 kmh 30.12 in1020.0 mb 0.00 in0.0 mm 0.00 in/hr0.0 mm/hr 0.00 in0.0 mm
11:45 PM 35.3°F1.8°C 28.5°F-1.9°C 76% 3.0 mph WNW4.8 kmh WNW 5.0 mph8.0 kmh 30.13 in1020.3 mb 0.00 in0.0 mm 0.00 in/hr0.0 mm/hr 0.00 in0.0 mm